createdAt,value
2019-03-24T00:00:00.451Z,43.70
2019-03-24T00:02:30.219Z,41.60
2019-03-24T00:04:59.861Z,42.67
2019-03-24T00:07:29.733Z,41.63
2019-03-24T00:10:00.365Z,43.63
2019-03-24T00:12:30.050Z,43.80
2019-03-24T00:14:59.680Z,43.00
2019-03-24T00:17:29.479Z,45.43
2019-03-24T00:19:59.190Z,44.50
2019-03-24T00:22:28.830Z,42.17
2019-03-24T00:25:00.008Z,44.23
2019-03-24T00:27:31.870Z,43.03
2019-03-24T00:30:01.723Z,43.37
2019-03-24T00:32:31.407Z,41.57
2019-03-24T00:35:01.178Z,43.13
2019-03-24T00:37:33.839Z,41.13
2019-03-24T00:40:03.677Z,43.93
2019-03-24T00:42:33.386Z,42.03
2019-03-24T00:45:03.187Z,42.47
2019-03-24T00:47:33.946Z,44.97
2019-03-24T00:50:03.770Z,43.10
2019-03-24T00:52:35.470Z,43.87
2019-03-24T00:55:05.199Z,42.53
2019-03-24T00:57:37.581Z,41.87
2019-03-24T01:00:07.765Z,40.30
2019-03-24T01:02:37.781Z,41.60
2019-03-24T01:05:08.596Z,41.93
2019-03-24T01:07:41.210Z,44.53
2019-03-24T01:10:13.111Z,41.70
2019-03-24T01:12:42.797Z,42.67
2019-03-24T01:15:12.521Z,41.03
2019-03-24T01:17:46.977Z,42.03
2019-03-24T01:20:17.500Z,42.80
2019-03-24T01:22:48.339Z,42.63
2019-03-24T01:25:19.185Z,41.00
2019-03-24T01:27:49.976Z,41.93
2019-03-24T01:30:19.701Z,42.83
2019-03-24T01:32:49.337Z,40.00
2019-03-24T01:35:19.038Z,41.33
2019-03-24T01:37:52.235Z,41.33
2019-03-24T01:40:21.878Z,40.17
2019-03-24T01:42:51.573Z,40.00
2019-03-24T01:45:21.221Z,38.10
2019-03-24T01:47:52.094Z,39.00
2019-03-24T01:50:21.753Z,40.40
2019-03-24T01:52:51.381Z,39.23
2019-03-24T01:55:21.120Z,40.50
2019-03-24T01:57:52.114Z,38.93
2019-03-24T02:00:21.821Z,38.97
2019-03-24T02:02:51.406Z,39.37
2019-03-24T02:05:22.941Z,39.67
2019-03-24T02:07:53.655Z,38.50
2019-03-24T02:10:23.502Z,39.57
2019-03-24T02:12:53.187Z,38.27
2019-03-24T02:15:22.784Z,40.93
2019-03-24T02:17:52.387Z,38.57
2019-03-24T02:20:22.123Z,38.20
2019-03-24T02:22:51.775Z,40.07
2019-03-24T02:25:21.455Z,38.60
2019-03-24T02:27:53.162Z,38.43
2019-03-24T02:30:22.842Z,39.77
2019-03-24T02:32:52.420Z,38.47
2019-03-24T02:35:22.129Z,39.80
2019-03-24T02:37:51.759Z,39.40
2019-03-24T02:40:21.381Z,39.57
2019-03-24T02:42:51.122Z,38.97
2019-03-24T02:45:20.786Z,36.60
2019-03-24T02:47:50.389Z,37.77
2019-03-24T02:50:20.081Z,36.87
2019-03-24T02:52:49.759Z,41.03
2019-03-24T02:55:20.756Z,38.53
2019-03-24T02:57:50.510Z,35.40
2019-03-24T03:00:20.274Z,36.70
2019-03-24T03:02:50.092Z,39.43
2019-03-24T03:05:19.699Z,38.57
2019-03-24T03:07:49.392Z,37.10
2019-03-24T03:10:21.377Z,36.43
2019-03-24T03:12:50.994Z,36.97
2019-03-24T03:15:21.847Z,36.10
2019-03-24T03:17:51.457Z,35.67
2019-03-24T03:20:22.137Z,36.23
2019-03-24T03:22:51.795Z,35.90
2019-03-24T03:25:26.876Z,37.47
2019-03-24T03:27:56.896Z,35.47
2019-03-24T03:30:26.514Z,35.33
2019-03-24T03:32:59.233Z,35.97
2019-03-24T03:35:30.341Z,37.00
2019-03-24T03:37:59.941Z,35.07
2019-03-24T03:40:29.658Z,35.70
2019-03-24T03:42:59.283Z,35.93
2019-03-24T03:45:30.386Z,36.23
2019-03-24T03:48:00.270Z,35.80
2019-03-24T03:50:29.858Z,36.03
2019-03-24T03:53:03.001Z,36.33
2019-03-24T03:55:34.024Z,35.03
2019-03-24T03:58:03.726Z,37.60
2019-03-24T04:00:34.216Z,36.43
2019-03-24T04:03:04.002Z,35.40
2019-03-24T04:05:34.710Z,34.93
2019-03-24T04:08:04.738Z,35.40
2019-03-24T04:10:34.363Z,36.07
2019-03-24T04:13:04.098Z,34.53
2019-03-24T04:15:33.714Z,35.33
2019-03-24T04:18:03.332Z,34.27
2019-03-24T04:20:32.938Z,34.77
2019-03-24T04:23:02.564Z,33.83
2019-03-24T04:25:32.248Z,37.37
2019-03-24T04:28:01.923Z,34.33
2019-03-24T04:30:32.048Z,36.67
2019-03-24T04:33:03.722Z,35.57
2019-03-24T04:35:34.612Z,32.60
2019-03-24T04:38:04.349Z,33.53
2019-03-24T04:40:34.095Z,32.77
2019-03-24T04:43:03.744Z,33.97
2019-03-24T04:45:33.354Z,32.17
2019-03-24T04:48:02.958Z,32.53
2019-03-24T04:50:32.618Z,33.73
2019-03-24T04:53:04.514Z,32.83
2019-03-24T04:55:35.668Z,33.27
2019-03-24T04:58:05.355Z,33.33
2019-03-24T05:00:36.751Z,33.73
2019-03-24T05:03:06.374Z,32.87
2019-03-24T05:05:38.096Z,33.93
2019-03-24T05:08:11.022Z,32.83
2019-03-24T05:10:40.673Z,33.93
2019-03-24T05:13:10.312Z,32.60
2019-03-24T05:15:41.161Z,33.17
2019-03-24T05:18:13.137Z,32.77
2019-03-24T05:20:43.246Z,32.67
2019-03-24T05:23:12.839Z,34.60
2019-03-24T05:25:43.627Z,31.40
2019-03-24T05:28:13.340Z,32.30
2019-03-24T05:30:42.991Z,32.53
2019-03-24T05:33:12.632Z,32.00
2019-03-24T05:35:42.283Z,32.20
2019-03-24T05:38:12.148Z,32.10
2019-03-24T05:40:41.936Z,34.33
2019-03-24T05:43:11.603Z,33.53
2019-03-24T05:45:41.696Z,32.00
2019-03-24T05:48:11.299Z,33.43
2019-03-24T05:50:40.971Z,32.20
2019-03-24T05:53:10.692Z,32.50
2019-03-24T05:55:40.786Z,31.93
2019-03-24T05:58:10.449Z,32.67
2019-03-24T06:00:41.968Z,31.33
2019-03-24T06:03:11.718Z,31.97
2019-03-24T06:05:42.360Z,33.60
2019-03-24T06:08:16.343Z,32.00
2019-03-24T06:10:46.000Z,32.70
2019-03-24T06:13:15.632Z,34.03
2019-03-24T06:15:46.608Z,33.23
2019-03-24T06:18:16.227Z,33.00
2019-03-24T06:20:47.012Z,32.90
2019-03-24T06:23:16.689Z,32.10
2019-03-24T06:25:47.972Z,32.77
2019-03-24T06:28:19.678Z,30.57
2019-03-24T06:30:49.293Z,31.60
2019-03-24T06:33:18.910Z,32.17
2019-03-24T06:35:50.036Z,32.87
2019-03-24T06:38:19.813Z,34.73
2019-03-24T06:40:49.457Z,34.80
2019-03-24T06:43:19.190Z,32.40
2019-03-24T06:45:50.025Z,33.00
2019-03-24T06:48:21.219Z,32.23
2019-03-24T06:50:51.018Z,31.13
2019-03-24T06:53:22.690Z,33.47
2019-03-24T06:55:53.501Z,35.03
2019-03-24T06:58:23.190Z,35.63
2019-03-24T07:00:56.195Z,34.40
2019-03-24T07:03:25.955Z,34.73
2019-03-24T07:05:58.844Z,34.50
2019-03-24T07:08:29.718Z,34.17
2019-03-24T07:10:59.340Z,34.90
2019-03-24T07:13:30.300Z,34.23
2019-03-24T07:16:00.171Z,34.53
2019-03-24T07:18:30.794Z,34.27
2019-03-24T07:21:04.712Z,34.63
2019-03-24T07:23:35.510Z,34.40
2019-03-24T07:26:05.142Z,33.60
2019-03-24T07:28:37.260Z,35.50
2019-03-24T07:31:07.858Z,35.00
2019-03-24T07:33:38.893Z,34.20
2019-03-24T07:36:08.589Z,34.87
2019-03-24T07:38:38.316Z,35.90
2019-03-24T07:41:08.084Z,33.33
2019-03-24T07:43:37.742Z,34.90
2019-03-24T07:46:07.369Z,33.70
2019-03-24T07:48:37.038Z,35.27
2019-03-24T07:51:06.643Z,34.97
2019-03-24T07:53:36.293Z,34.73
2019-03-24T07:56:07.613Z,33.53
2019-03-24T07:58:37.262Z,34.57
2019-03-24T08:01:09.596Z,33.83
2019-03-24T08:03:40.881Z,34.27
2019-03-24T08:06:12.126Z,33.23
2019-03-24T08:08:44.630Z,33.97
2019-03-24T08:11:14.236Z,34.47
2019-03-24T08:13:55.276Z,32.23
2019-03-24T08:16:25.579Z,31.03
2019-03-24T08:18:55.187Z,28.90
2019-03-24T08:21:24.869Z,30.00
2019-03-24T08:23:55.679Z,28.93
2019-03-24T08:26:25.273Z,28.33
2019-03-24T08:28:54.933Z,28.80
2019-03-24T08:31:26.700Z,29.73
2019-03-24T08:33:57.773Z,29.23
2019-03-24T08:36:28.017Z,29.83
2019-03-24T08:38:57.649Z,28.43
2019-03-24T08:41:28.266Z,28.43
2019-03-24T08:43:58.919Z,28.10
2019-03-24T08:46:28.564Z,29.40
2019-03-24T08:48:58.182Z,28.60
2019-03-24T08:51:28.686Z,28.47
2019-03-24T08:53:59.655Z,28.20
2019-03-24T08:56:29.535Z,28.37
2019-03-24T08:58:59.285Z,28.93
2019-03-24T09:01:29.024Z,28.77
2019-03-24T09:03:59.751Z,29.30
2019-03-24T09:06:29.376Z,29.83
2019-03-24T09:08:59.088Z,28.80
2019-03-24T09:11:31.546Z,28.90
2019-03-24T09:14:02.896Z,28.53
2019-03-24T09:16:32.675Z,30.63
2019-03-24T09:19:02.319Z,29.67
2019-03-24T09:21:32.070Z,28.97
2019-03-24T09:24:03.156Z,27.43
2019-03-24T09:26:32.879Z,31.77
2019-03-24T09:29:02.481Z,28.70
2019-03-24T09:31:32.135Z,30.23
2019-03-24T09:34:04.102Z,29.67
2019-03-24T09:36:33.692Z,30.10
2019-03-24T09:39:05.887Z,38.30
2019-03-24T09:41:35.628Z,28.23
2019-03-24T09:44:06.359Z,28.80
2019-03-24T09:46:39.401Z,30.37
2019-03-24T09:49:10.174Z,28.97
2019-03-24T09:51:39.803Z,27.67
2019-03-24T09:54:10.747Z,27.00
2019-03-24T09:56:44.857Z,28.30
2019-03-24T09:59:16.776Z,28.97
2019-03-24T10:01:46.558Z,26.97
2019-03-24T10:04:16.291Z,28.63
2019-03-24T10:06:45.969Z,27.43
2019-03-24T10:09:15.547Z,29.93
2019-03-24T10:11:45.272Z,29.57
2019-03-24T10:14:15.026Z,29.77
2019-03-24T10:16:44.710Z,29.00
2019-03-24T10:19:14.611Z,30.73
2019-03-24T10:21:47.854Z,29.90
2019-03-24T10:24:17.548Z,29.33
2019-03-24T10:26:49.265Z,27.27
2019-03-24T10:29:21.238Z,30.00
2019-03-24T10:31:50.904Z,28.53
2019-03-24T10:34:21.777Z,29.50
2019-03-24T10:36:51.478Z,28.77
2019-03-24T10:39:21.100Z,29.40
2019-03-24T10:41:50.744Z,29.13
2019-03-24T10:44:21.426Z,29.33
2019-03-24T10:46:52.085Z,28.03
2019-03-24T10:49:25.131Z,28.67
2019-03-24T10:51:54.164Z,28.97
2019-03-24T10:54:26.695Z,28.33
2019-03-24T10:56:56.289Z,29.07
2019-03-24T10:59:26.020Z,27.40
2019-03-24T11:01:56.763Z,28.13
2019-03-24T11:04:26.487Z,26.87
2019-03-24T11:06:56.067Z,29.73
2019-03-24T11:09:25.710Z,29.03
2019-03-24T11:11:55.345Z,27.53
2019-03-24T11:14:26.586Z,26.67
2019-03-24T11:16:56.229Z,26.20
2019-03-24T11:19:35.380Z,27.50
2019-03-24T11:21:57.351Z,24.90
2019-03-24T11:24:29.093Z,25.50
2019-03-24T11:26:58.894Z,26.40
2019-03-24T11:29:28.559Z,26.97
2019-03-24T11:31:58.199Z,24.97
2019-03-24T11:34:29.045Z,26.07
2019-03-24T11:36:58.661Z,26.27
2019-03-24T11:39:28.290Z,26.93
2019-03-24T11:41:57.954Z,27.40
2019-03-24T11:44:27.589Z,27.00
2019-03-24T11:46:57.316Z,30.73
2019-03-24T11:49:26.925Z,30.47
2019-03-24T11:51:56.688Z,27.33
2019-03-24T11:54:26.484Z,30.67
2019-03-24T11:56:56.153Z,29.17
2019-03-24T11:59:25.850Z,28.80
2019-03-24T12:01:58.792Z,29.97
2019-03-24T12:04:28.437Z,29.73
2019-03-24T12:06:58.147Z,29.00
2019-03-24T12:09:27.759Z,28.23
2019-03-24T12:11:57.440Z,29.17
2019-03-24T12:14:27.107Z,26.87
2019-03-24T12:16:56.721Z,29.77
2019-03-24T12:19:27.405Z,28.80
2019-03-24T12:21:57.011Z,29.07
2019-03-24T12:24:26.587Z,26.23
2019-03-24T12:26:58.335Z,26.67
2019-03-24T12:29:27.963Z,27.00
2019-03-24T12:31:57.781Z,28.87
2019-03-24T12:34:28.651Z,27.43
2019-03-24T12:36:58.355Z,27.23
2019-03-24T12:39:30.109Z,26.60
2019-03-24T12:41:59.719Z,29.87
2019-03-24T12:44:30.492Z,29.23
2019-03-24T12:47:00.246Z,26.10
2019-03-24T12:49:29.888Z,27.13
2019-03-24T12:52:01.582Z,25.90
2019-03-24T12:54:32.422Z,25.70
2019-03-24T12:57:02.071Z,26.27
2019-03-24T12:59:31.739Z,26.30
2019-03-24T13:02:01.444Z,26.53
2019-03-24T13:04:31.083Z,24.73
2019-03-24T13:07:02.783Z,27.23
2019-03-24T13:09:33.712Z,27.70
2019-03-24T13:12:03.580Z,27.27
2019-03-24T13:14:33.145Z,26.23
2019-03-24T13:17:02.881Z,26.30
2019-03-24T13:19:32.580Z,25.63
2019-03-24T13:22:02.763Z,27.90
2019-03-24T13:24:32.368Z,26.97
2019-03-24T13:27:04.032Z,26.57
2019-03-24T13:29:33.707Z,27.30
2019-03-24T13:32:04.700Z,30.10
2019-03-24T13:34:34.416Z,29.93
2019-03-24T13:37:04.321Z,28.60
2019-03-24T13:39:34.105Z,28.57
2019-03-24T13:42:06.987Z,29.70
2019-03-24T13:44:36.679Z,29.40
2019-03-24T13:47:06.299Z,30.07
2019-03-24T13:49:36.008Z,28.90
2019-03-24T13:52:07.016Z,29.53
2019-03-24T13:54:36.666Z,26.63
2019-03-24T13:57:06.469Z,28.17
2019-03-24T13:59:36.108Z,27.40
2019-03-24T14:02:05.806Z,28.40
2019-03-24T14:04:35.388Z,25.60
2019-03-24T14:07:05.096Z,26.37
2019-03-24T14:09:34.823Z,24.80
2019-03-24T14:12:04.387Z,24.93
2019-03-24T14:14:34.847Z,24.53
2019-03-24T14:17:04.436Z,23.27
2019-03-24T14:19:34.033Z,24.27
2019-03-24T14:22:03.638Z,23.03
2019-03-24T14:24:33.452Z,23.03
2019-03-24T14:27:03.398Z,23.37
2019-03-24T14:29:33.034Z,23.30
2019-03-24T14:32:02.767Z,22.97
2019-03-24T14:34:34.708Z,21.83
2019-03-24T14:37:04.299Z,22.67
2019-03-24T14:39:33.914Z,22.70
2019-03-24T14:42:05.081Z,23.17
2019-03-24T14:44:34.723Z,23.03
2019-03-24T14:47:04.317Z,23.00
2019-03-24T14:49:33.934Z,22.60
2019-03-24T14:52:03.492Z,24.17
2019-03-24T14:54:33.115Z,24.00
2019-03-24T14:57:07.107Z,23.50
2019-03-24T14:59:36.780Z,23.23
2019-03-24T15:02:07.939Z,22.03
2019-03-24T15:04:37.568Z,22.70
2019-03-24T15:07:07.193Z,21.30
2019-03-24T15:09:37.012Z,20.93
2019-03-24T15:12:08.137Z,21.00
2019-03-24T15:14:37.969Z,21.20
2019-03-24T15:17:07.590Z,19.73
2019-03-24T15:19:37.258Z,20.73
2019-03-24T15:22:08.013Z,20.83
2019-03-24T15:24:37.650Z,20.00
2019-03-24T15:27:07.252Z,19.33
2019-03-24T15:29:36.889Z,19.50
2019-03-24T15:32:06.458Z,19.93
2019-03-24T15:34:36.090Z,18.97
2019-03-24T15:37:05.664Z,19.37
2019-03-24T15:39:35.242Z,19.43
2019-03-24T15:42:04.866Z,20.20
2019-03-24T15:44:34.449Z,22.50
2019-03-24T15:47:04.062Z,21.70
2019-03-24T15:49:33.655Z,22.27
2019-03-24T15:52:03.261Z,21.60
2019-03-24T15:54:32.874Z,20.83
2019-03-24T15:57:02.579Z,20.20
2019-03-24T15:59:32.208Z,21.13
2019-03-24T16:02:01.810Z,22.43
2019-03-24T16:04:31.503Z,21.33
2019-03-24T16:07:01.374Z,22.27
2019-03-24T16:09:30.980Z,22.83
2019-03-24T16:12:00.613Z,21.33
2019-03-24T16:14:30.193Z,20.43
2019-03-24T16:17:00.136Z,21.43
2019-03-24T16:19:29.796Z,23.00
2019-03-24T16:22:01.599Z,19.23
2019-03-24T16:24:31.721Z,20.53
2019-03-24T16:27:04.824Z,19.27
2019-03-24T16:29:34.467Z,21.13
2019-03-24T16:32:05.314Z,19.30
2019-03-24T16:34:37.443Z,19.70
2019-03-24T16:37:07.217Z,20.07
2019-03-24T16:39:38.068Z,19.13
2019-03-24T16:42:08.849Z,19.27
2019-03-24T16:44:38.457Z,19.37
2019-03-24T16:47:09.341Z,20.37
2019-03-24T16:49:38.910Z,21.17
2019-03-24T16:52:10.009Z,19.70
2019-03-24T16:54:39.876Z,17.97
2019-03-24T16:57:09.846Z,16.37
2019-03-24T16:59:39.666Z,16.53
2019-03-24T17:02:10.539Z,16.60
2019-03-24T17:04:40.499Z,15.63
2019-03-24T17:07:10.133Z,17.43
2019-03-24T17:09:39.818Z,15.00
2019-03-24T17:12:10.428Z,14.70
2019-03-24T17:14:40.168Z,13.57
2019-03-24T17:17:11.464Z,14.07
2019-03-24T17:19:41.196Z,13.37
2019-03-24T17:22:12.445Z,12.37
2019-03-24T17:24:42.076Z,12.97
2019-03-24T17:27:11.760Z,13.87
2019-03-24T17:29:45.300Z,11.77
2019-03-24T17:32:16.375Z,11.37
2019-03-24T17:34:47.462Z,11.43
2019-03-24T17:37:19.323Z,10.73
2019-03-24T17:39:49.017Z,10.40
2019-03-24T17:42:20.633Z,15.30
2019-03-24T17:44:50.430Z,13.37
2019-03-24T17:47:20.206Z,13.50
2019-03-24T17:49:50.228Z,13.37
2019-03-24T17:52:23.085Z,10.60
2019-03-24T17:54:52.962Z,13.83
2019-03-24T17:57:22.656Z,13.73
2019-03-24T17:59:52.290Z,12.47
2019-03-24T18:02:23.215Z,11.47
2019-03-24T18:04:53.034Z,10.77
2019-03-24T18:07:22.851Z,10.03
2019-03-24T18:09:52.446Z,11.00
2019-03-24T18:12:22.148Z,11.20
2019-03-24T18:14:51.763Z,10.50
2019-03-24T18:17:21.560Z,25.37
2019-03-24T18:19:52.370Z,11.47
2019-03-24T18:22:23.600Z,10.30
2019-03-24T18:24:53.232Z,10.80
2019-03-24T18:27:23.009Z,12.30
2019-03-24T18:29:53.602Z,14.93
2019-03-24T18:32:23.350Z,14.03
2019-03-24T18:34:55.460Z,12.50
2019-03-24T18:37:27.287Z,11.43
2019-03-24T18:39:57.179Z,12.20
2019-03-24T18:42:32.269Z,11.97
2019-03-24T18:45:02.001Z,11.67
2019-03-24T18:47:31.703Z,11.93
2019-03-24T18:50:01.533Z,12.20
2019-03-24T18:52:33.668Z,10.97
2019-03-24T18:55:03.781Z,11.33
2019-03-24T18:57:33.694Z,11.80
2019-03-24T19:00:05.778Z,11.13
2019-03-24T19:02:36.683Z,11.63
2019-03-24T19:05:06.620Z,10.97
2019-03-24T19:07:36.488Z,10.97
2019-03-24T19:10:06.736Z,11.63
2019-03-24T19:12:37.766Z,16.43
2019-03-24T19:15:09.137Z,13.83
2019-03-24T19:17:39.285Z,13.83
2019-03-24T19:20:11.496Z,14.03
2019-03-24T19:22:43.691Z,15.33
2019-03-24T19:25:13.496Z,15.17
2019-03-24T19:27:43.526Z,13.63
2019-03-24T19:30:13.495Z,11.67
2019-03-24T19:32:43.318Z,11.63
2019-03-24T19:35:13.031Z,11.80
2019-03-24T19:37:43.007Z,17.43
2019-03-24T19:40:26.480Z,13.97
2019-03-24T19:42:56.196Z,16.80
2019-03-24T19:45:25.876Z,12.83
2019-03-24T19:47:55.783Z,14.23
2019-03-24T19:50:25.466Z,10.60
2019-03-24T19:52:55.174Z,11.87
2019-03-24T19:55:24.798Z,11.07
2019-03-24T19:57:56.851Z,13.23
2019-03-24T20:00:26.504Z,12.50
2019-03-24T20:02:57.362Z,12.53
2019-03-24T20:05:27.650Z,12.57
2019-03-24T20:07:58.532Z,11.83
2019-03-24T20:10:28.288Z,11.87
2019-03-24T20:12:59.316Z,12.03
2019-03-24T20:15:28.970Z,15.00
2019-03-24T20:18:00.931Z,12.63
2019-03-24T20:20:30.626Z,11.53
2019-03-24T20:23:01.814Z,10.73
2019-03-24T20:25:31.681Z,10.87
2019-03-24T20:28:05.367Z,11.37
2019-03-24T20:30:40.065Z,11.40
2019-03-24T20:33:11.323Z,11.40
2019-03-24T20:35:41.077Z,10.97
2019-03-24T20:38:12.965Z,9.77
2019-03-24T20:40:43.935Z,10.60
2019-03-24T20:43:15.043Z,9.93
2019-03-24T20:45:44.699Z,10.73
2019-03-24T20:48:14.380Z,9.80
2019-03-24T20:50:43.976Z,11.73
2019-03-24T20:53:18.336Z,11.93
2019-03-24T20:55:45.039Z,12.20
2019-03-24T20:58:16.949Z,12.50
2019-03-24T21:00:46.684Z,12.27
2019-03-24T21:03:16.412Z,12.30
2019-03-24T21:05:46.159Z,12.67
2019-03-24T21:08:15.811Z,12.40
2019-03-24T21:10:45.533Z,13.20
2019-03-24T21:13:15.275Z,13.00
2019-03-24T21:15:45.032Z,14.40
2019-03-24T21:18:14.593Z,13.70
2019-03-24T21:20:44.272Z,15.23
2019-03-24T21:23:14.768Z,12.90
2019-03-24T21:25:45.267Z,13.57
2019-03-24T21:28:17.888Z,14.23
2019-03-24T21:30:48.711Z,14.47
2019-03-24T21:33:20.305Z,13.10
2019-03-24T21:35:50.347Z,15.47
2019-03-24T21:38:20.099Z,13.37
2019-03-24T21:40:56.659Z,12.63
2019-03-24T21:43:28.776Z,14.23
2019-03-24T21:46:02.372Z,13.80
2019-03-24T21:48:32.114Z,13.97
2019-03-24T21:51:02.610Z,14.00
2019-03-24T21:53:40.663Z,12.43
2019-03-24T21:56:06.045Z,13.17
2019-03-24T21:58:45.389Z,12.80
2019-03-24T22:01:15.068Z,13.83
2019-03-24T22:03:44.773Z,12.33
2019-03-24T22:06:14.428Z,13.77
2019-03-24T22:08:45.192Z,12.80
2019-03-24T22:11:14.917Z,13.07
2019-03-24T22:13:44.650Z,12.10
2019-03-24T22:16:14.325Z,11.73
2019-03-24T22:18:44.095Z,13.50
2019-03-24T22:21:13.739Z,12.43
2019-03-24T22:23:52.249Z,12.33
2019-03-24T22:26:17.416Z,13.53
2019-03-24T22:28:47.119Z,12.90
2019-03-24T22:31:16.726Z,11.97
2019-03-24T22:33:46.438Z,13.17
2019-03-24T22:36:16.104Z,13.73
2019-03-24T22:38:45.734Z,12.17
2019-03-24T22:41:15.339Z,13.30
2019-03-24T22:43:45.076Z,12.80
2019-03-24T22:46:17.108Z,14.13
2019-03-24T22:48:46.849Z,16.30
2019-03-24T22:51:16.551Z,13.77
2019-03-24T22:53:46.365Z,12.93
2019-03-24T22:56:15.976Z,13.93
2019-03-24T22:58:47.694Z,13.00
2019-03-24T23:01:22.473Z,12.77
2019-03-24T23:03:52.220Z,13.13
2019-03-24T23:06:25.572Z,13.30
2019-03-24T23:08:55.257Z,12.63
2019-03-24T23:11:24.953Z,13.37
2019-03-24T23:13:55.676Z,13.87
2019-03-24T23:16:25.327Z,13.53
2019-03-24T23:18:54.969Z,13.23
2019-03-24T23:21:24.657Z,13.10
2019-03-24T23:23:54.365Z,13.37
2019-03-24T23:26:24.391Z,13.60
2019-03-24T23:28:54.112Z,14.07
2019-03-24T23:31:23.755Z,13.27
2019-03-24T23:33:55.395Z,13.97
2019-03-24T23:36:25.071Z,12.50
2019-03-24T23:38:57.325Z,12.63
2019-03-24T23:41:27.223Z,13.03
2019-03-24T23:43:57.352Z,13.47
2019-03-24T23:46:27.076Z,13.37
2019-03-24T23:49:00.368Z,12.97
2019-03-24T23:51:30.420Z,13.80
2019-03-24T23:54:02.047Z,15.53
2019-03-24T23:56:33.765Z,13.67
2019-03-24T23:59:03.437Z,13.80
